sensor_id;sensor_type;location;lat;lon;timestamp;P1;durP1;ratioP1;P2;durP2;ratioP2
46835;SDS011;32573;51.290;6.926;2022-07-15T00:01:31;3.15;;;1.20;;
46835;SDS011;32573;51.290;6.926;2022-07-15T00:04:01;4.20;;;1.35;;
46835;SDS011;32573;51.290;6.926;2022-07-15T00:06:30;4.05;;;1.40;;
46835;SDS011;32573;51.290;6.926;2022-07-15T00:08:59;3.85;;;1.42;;
46835;SDS011;32573;51.290;6.926;2022-07-15T00:11:27;3.60;;;1.38;;
46835;SDS011;32573;51.290;6.926;2022-07-15T00:13:56;3.50;;;1.40;;
46835;SDS011;32573;51.290;6.926;2022-07-15T00:16:29;3.20;;;1.30;;
46835;SDS011;32573;51.290;6.926;2022-07-15T00:18:57;2.65;;;1.30;;
46835;SDS011;32573;51.290;6.926;2022-07-15T00:21:26;3.10;;;1.20;;
46835;SDS011;32573;51.290;6.926;2022-07-15T00:23:56;4.50;;;1.38;;
46835;SDS011;32573;51.290;6.926;2022-07-15T00:26:25;3.40;;;1.20;;
46835;SDS011;32573;51.290;6.926;2022-07-15T00:29:00;4.03;;;1.30;;
46835;SDS011;32573;51.290;6.926;2022-07-15T00:31:28;4.00;;;1.45;;
46835;SDS011;32573;51.290;6.926;2022-07-15T00:33:57;3.35;;;1.33;;
46835;SDS011;32573;51.290;6.926;2022-07-15T00:36:25;4.65;;;1.40;;
46835;SDS011;32573;51.290;6.926;2022-07-15T00:38:56;3.33;;;1.30;;
46835;SDS011;32573;51.290;6.926;2022-07-15T00:41:24;4.30;;;1.30;;
46835;SDS011;32573;51.290;6.926;2022-07-15T00:43:52;4.10;;;1.30;;
46835;SDS011;32573;51.290;6.926;2022-07-15T00:46:21;6.20;;;1.60;;
46835;SDS011;32573;51.290;6.926;2022-07-15T00:48:50;4.10;;;1.42;;
46835;SDS011;32573;51.290;6.926;2022-07-15T00:51:18;4.25;;;1.30;;
46835;SDS011;32573;51.290;6.926;2022-07-15T00:53:46;4.43;;;1.30;;
46835;SDS011;32573;51.290;6.926;2022-07-15T00:56:17;4.25;;;1.40;;
46835;SDS011;32573;51.290;6.926;2022-07-15T00:58:49;4.05;;;1.45;;
46835;SDS011;32573;51.290;6.926;2022-07-15T01:01:20;3.75;;;1.38;;
46835;SDS011;32573;51.290;6.926;2022-07-15T01:03:49;3.63;;;1.38;;
46835;SDS011;32573;51.290;6.926;2022-07-15T01:06:18;4.13;;;1.35;;
46835;SDS011;32573;51.290;6.926;2022-07-15T01:08:46;4.40;;;1.30;;
46835;SDS011;32573;51.290;6.926;2022-07-15T01:11:15;4.40;;;1.42;;
46835;SDS011;32573;51.290;6.926;2022-07-15T01:13:45;3.15;;;1.10;;
46835;SDS011;32573;51.290;6.926;2022-07-15T01:16:14;2.50;;;1.17;;
46835;SDS011;32573;51.290;6.926;2022-07-15T01:18:43;4.38;;;1.33;;
46835;SDS011;32573;51.290;6.926;2022-07-15T01:21:13;4.55;;;1.33;;
46835;SDS011;32573;51.290;6.926;2022-07-15T01:23:43;4.00;;;1.50;;
46835;SDS011;32573;51.290;6.926;2022-07-15T01:26:30;3.45;;;1.23;;
46835;SDS011;32573;51.290;6.926;2022-07-15T01:28:58;4.40;;;1.15;;
46835;SDS011;32573;51.290;6.926;2022-07-15T01:31:27;4.35;;;1.38;;
46835;SDS011;32573;51.290;6.926;2022-07-15T01:33:56;3.33;;;1.30;;
46835;SDS011;32573;51.290;6.926;2022-07-15T01:36:27;3.53;;;1.42;;
46835;SDS011;32573;51.290;6.926;2022-07-15T01:41:48;3.95;;;1.20;;
46835;SDS011;32573;51.290;6.926;2022-07-15T01:44:18;5.28;;;1.33;;
46835;SDS011;32573;51.290;6.926;2022-07-15T01:46:46;3.97;;;1.50;;
46835;SDS011;32573;51.290;6.926;2022-07-15T01:49:17;3.67;;;1.35;;
46835;SDS011;32573;51.290;6.926;2022-07-15T01:52:14;3.92;;;1.42;;
46835;SDS011;32573;51.290;6.926;2022-07-15T01:54:44;3.13;;;1.10;;
46835;SDS011;32573;51.290;6.926;2022-07-15T01:57:13;4.03;;;1.60;;
46835;SDS011;32573;51.290;6.926;2022-07-15T02:00:02;5.18;;;1.33;;
46835;SDS011;32573;51.290;6.926;2022-07-15T02:02:43;4.90;;;1.38;;
46835;SDS011;32573;51.290;6.926;2022-07-15T02:05:14;3.30;;;1.30;;
46835;SDS011;32573;51.290;6.926;2022-07-15T02:07:47;2.50;;;1.13;;
46835;SDS011;32573;51.290;6.926;2022-07-15T02:10:17;4.20;;;1.30;;
46835;SDS011;32573;51.290;6.926;2022-07-15T02:12:48;3.17;;;1.17;;
46835;SDS011;32573;51.290;6.926;2022-07-15T02:15:19;2.97;;;1.27;;
46835;SDS011;32573;51.290;6.926;2022-07-15T02:17:52;3.05;;;1.15;;
46835;SDS011;32573;51.290;6.926;2022-07-15T02:20:25;3.20;;;1.13;;
46835;SDS011;32573;51.290;6.926;2022-07-15T02:22:56;4.10;;;1.30;;
46835;SDS011;32573;51.290;6.926;2022-07-15T02:25:29;3.63;;;1.23;;
46835;SDS011;32573;51.290;6.926;2022-07-15T02:28:00;3.08;;;1.08;;
46835;SDS011;32573;51.290;6.926;2022-07-15T02:30:31;3.35;;;1.52;;
46835;SDS011;32573;51.290;6.926;2022-07-15T02:33:02;3.30;;;1.30;;
46835;SDS011;32573;51.290;6.926;2022-07-15T02:35:32;4.47;;;1.40;;
46835;SDS011;32573;51.290;6.926;2022-07-15T02:38:06;3.85;;;1.23;;
46835;SDS011;32573;51.290;6.926;2022-07-15T02:40:34;4.93;;;1.25;;
46835;SDS011;32573;51.290;6.926;2022-07-15T02:43:10;4.38;;;1.30;;
46835;SDS011;32573;51.290;6.926;2022-07-15T02:45:39;3.95;;;1.50;;
46835;SDS011;32573;51.290;6.926;2022-07-15T02:48:08;3.38;;;1.30;;
46835;SDS011;32573;51.290;6.926;2022-07-15T02:50:43;4.43;;;1.50;;
46835;SDS011;32573;51.290;6.926;2022-07-15T02:53:16;3.38;;;1.33;;
46835;SDS011;32573;51.290;6.926;2022-07-15T02:55:46;3.38;;;1.30;;
46835;SDS011;32573;51.290;6.926;2022-07-15T02:58:15;3.35;;;1.10;;
46835;SDS011;32573;51.290;6.926;2022-07-15T03:00:44;3.13;;;1.20;;
46835;SDS011;32573;51.290;6.926;2022-07-15T03:03:12;3.33;;;1.30;;
46835;SDS011;32573;51.290;6.926;2022-07-15T03:05:42;5.07;;;1.30;;
46835;SDS011;32573;51.290;6.926;2022-07-15T03:08:10;5.57;;;1.50;;
46835;SDS011;32573;51.290;6.926;2022-07-15T03:10:42;3.15;;;1.30;;
46835;SDS011;32573;51.290;6.926;2022-07-15T03:13:10;4.25;;;1.40;;
46835;SDS011;32573;51.290;6.926;2022-07-15T03:15:39;3.25;;;1.40;;
46835;SDS011;32573;51.290;6.926;2022-07-15T03:18:07;3.85;;;1.30;;
46835;SDS011;32573;51.290;6.926;2022-07-15T03:20:36;3.33;;;1.30;;
46835;SDS011;32573;51.290;6.926;2022-07-15T03:23:04;3.65;;;1.30;;
46835;SDS011;32573;51.290;6.926;2022-07-15T03:25:33;4.05;;;1.30;;
46835;SDS011;32573;51.290;6.926;2022-07-15T03:28:10;3.55;;;1.40;;
46835;SDS011;32573;51.290;6.926;2022-07-15T03:30:40;5.32;;;1.30;;
46835;SDS011;32573;51.290;6.926;2022-07-15T03:33:12;4.15;;;1.30;;
46835;SDS011;32573;51.290;6.926;2022-07-15T03:35:41;4.85;;;1.38;;
46835;SDS011;32573;51.290;6.926;2022-07-15T03:38:10;3.45;;;1.30;;
46835;SDS011;32573;51.290;6.926;2022-07-15T03:40:39;4.50;;;1.55;;
46835;SDS011;32573;51.290;6.926;2022-07-15T03:43:08;3.78;;;1.30;;
46835;SDS011;32573;51.290;6.926;2022-07-15T03:45:38;4.53;;;1.50;;
46835;SDS011;32573;51.290;6.926;2022-07-15T03:48:06;3.80;;;1.38;;
46835;SDS011;32573;51.290;6.926;2022-07-15T03:50:36;4.80;;;1.40;;
46835;SDS011;32573;51.290;6.926;2022-07-15T03:53:04;3.58;;;1.42;;
46835;SDS011;32573;51.290;6.926;2022-07-15T03:55:33;5.13;;;1.60;;
46835;SDS011;32573;51.290;6.926;2022-07-15T03:58:03;3.80;;;1.50;;
46835;SDS011;32573;51.290;6.926;2022-07-15T04:00:33;4.10;;;1.60;;
46835;SDS011;32573;51.290;6.926;2022-07-15T04:03:03;3.20;;;1.30;;
46835;SDS011;32573;51.290;6.926;2022-07-15T04:05:31;4.05;;;1.50;;
46835;SDS011;32573;51.290;6.926;2022-07-15T04:08:00;3.10;;;1.50;;
46835;SDS011;32573;51.290;6.926;2022-07-15T04:10:28;4.18;;;1.60;;
46835;SDS011;32573;51.290;6.926;2022-07-15T04:12:58;4.15;;;1.40;;
46835;SDS011;32573;51.290;6.926;2022-07-15T04:15:26;3.33;;;1.30;;
46835;SDS011;32573;51.290;6.926;2022-07-15T04:17:55;3.22;;;1.40;;
46835;SDS011;32573;51.290;6.926;2022-07-15T04:20:27;3.40;;;1.40;;
46835;SDS011;32573;51.290;6.926;2022-07-15T04:22:58;4.25;;;1.50;;
46835;SDS011;32573;51.290;6.926;2022-07-15T04:25:27;4.10;;;1.40;;
46835;SDS011;32573;51.290;6.926;2022-07-15T04:27:56;4.45;;;1.35;;
46835;SDS011;32573;51.290;6.926;2022-07-15T04:30:28;4.05;;;1.30;;
46835;SDS011;32573;51.290;6.926;2022-07-15T04:32:56;2.88;;;1.45;;
46835;SDS011;32573;51.290;6.926;2022-07-15T04:35:30;4.30;;;1.52;;
46835;SDS011;32573;51.290;6.926;2022-07-15T04:38:03;3.60;;;1.45;;
46835;SDS011;32573;51.290;6.926;2022-07-15T04:40:32;4.50;;;1.50;;
46835;SDS011;32573;51.290;6.926;2022-07-15T04:43:04;3.95;;;1.52;;
46835;SDS011;32573;51.290;6.926;2022-07-15T04:45:32;4.68;;;1.60;;
46835;SDS011;32573;51.290;6.926;2022-07-15T04:48:02;4.00;;;1.60;;
46835;SDS011;32573;51.290;6.926;2022-07-15T04:50:53;4.75;;;1.60;;
46835;SDS011;32573;51.290;6.926;2022-07-15T04:53:25;4.32;;;1.52;;
46835;SDS011;32573;51.290;6.926;2022-07-15T04:55:54;3.70;;;1.52;;
46835;SDS011;32573;51.290;6.926;2022-07-15T04:58:22;4.03;;;1.58;;
46835;SDS011;32573;51.290;6.926;2022-07-15T05:00:51;3.28;;;1.42;;
46835;SDS011;32573;51.290;6.926;2022-07-15T05:03:22;4.75;;;1.70;;
46835;SDS011;32573;51.290;6.926;2022-07-15T05:05:51;5.35;;;2.10;;
46835;SDS011;32573;51.290;6.926;2022-07-15T05:08:28;5.45;;;1.75;;
46835;SDS011;32573;51.290;6.926;2022-07-15T05:10:57;4.97;;;1.58;;
46835;SDS011;32573;51.290;6.926;2022-07-15T05:13:25;4.00;;;1.50;;
46835;SDS011;32573;51.290;6.926;2022-07-15T05:15:57;5.28;;;1.75;;
46835;SDS011;32573;51.290;6.926;2022-07-15T05:18:25;4.40;;;1.52;;
46835;SDS011;32573;51.290;6.926;2022-07-15T05:20:57;5.75;;;1.70;;
46835;SDS011;32573;51.290;6.926;2022-07-15T05:23:31;5.85;;;1.80;;
46835;SDS011;32573;51.290;6.926;2022-07-15T05:26:04;3.78;;;1.60;;
46835;SDS011;32573;51.290;6.926;2022-07-15T05:28:35;5.25;;;1.88;;
46835;SDS011;32573;51.290;6.926;2022-07-15T05:31:05;4.78;;;1.80;;
46835;SDS011;32573;51.290;6.926;2022-07-15T05:33:34;6.15;;;1.90;;
46835;SDS011;32573;51.290;6.926;2022-07-15T05:36:10;7.68;;;2.03;;
46835;SDS011;32573;51.290;6.926;2022-07-15T05:38:41;5.40;;;1.63;;
46835;SDS011;32573;51.290;6.926;2022-07-15T05:41:10;4.40;;;1.70;;
46835;SDS011;32573;51.290;6.926;2022-07-15T05:43:39;6.00;;;1.92;;
46835;SDS011;32573;51.290;6.926;2022-07-15T05:46:08;5.35;;;1.77;;
46835;SDS011;32573;51.290;6.926;2022-07-15T05:48:46;6.85;;;1.73;;
46835;SDS011;32573;51.290;6.926;2022-07-15T05:51:15;5.88;;;1.88;;
46835;SDS011;32573;51.290;6.926;2022-07-15T05:53:46;6.05;;;1.80;;
46835;SDS011;32573;51.290;6.926;2022-07-15T05:56:14;5.43;;;1.70;;
46835;SDS011;32573;51.290;6.926;2022-07-15T05:58:43;3.50;;;1.23;;
46835;SDS011;32573;51.290;6.926;2022-07-15T06:01:13;4.25;;;1.40;;
46835;SDS011;32573;51.290;6.926;2022-07-15T06:03:42;4.70;;;1.30;;
46835;SDS011;32573;51.290;6.926;2022-07-15T06:06:11;5.57;;;1.40;;
46835;SDS011;32573;51.290;6.926;2022-07-15T06:11:15;4.72;;;1.30;;
46835;SDS011;32573;51.290;6.926;2022-07-15T06:13:44;5.88;;;1.40;;
46835;SDS011;32573;51.290;6.926;2022-07-15T06:16:14;3.67;;;1.30;;
46835;SDS011;32573;51.290;6.926;2022-07-15T06:18:43;4.07;;;1.30;;
46835;SDS011;32573;51.290;6.926;2022-07-15T06:21:13;4.25;;;1.50;;
46835;SDS011;32573;51.290;6.926;2022-07-15T06:23:43;3.80;;;1.10;;
46835;SDS011;32573;51.290;6.926;2022-07-15T06:26:13;5.90;;;1.40;;
46835;SDS011;32573;51.290;6.926;2022-07-15T06:28:42;3.47;;;1.20;;
46835;SDS011;32573;51.290;6.926;2022-07-15T06:31:19;4.32;;;1.27;;
46835;SDS011;32573;51.290;6.926;2022-07-15T06:33:48;6.78;;;1.50;;
46835;SDS011;32573;51.290;6.926;2022-07-15T06:36:17;3.63;;;1.10;;
46835;SDS011;32573;51.290;6.926;2022-07-15T06:38:45;3.40;;;1.10;;
46835;SDS011;32573;51.290;6.926;2022-07-15T06:41:18;5.93;;;1.23;;
46835;SDS011;32573;51.290;6.926;2022-07-15T06:43:49;4.05;;;0.93;;
46835;SDS011;32573;51.290;6.926;2022-07-15T06:46:26;4.18;;;1.20;;
46835;SDS011;32573;51.290;6.926;2022-07-15T06:48:55;4.07;;;1.33;;
46835;SDS011;32573;51.290;6.926;2022-07-15T06:51:26;4.00;;;1.05;;
46835;SDS011;32573;51.290;6.926;2022-07-15T06:53:55;4.10;;;1.27;;
46835;SDS011;32573;51.290;6.926;2022-07-15T06:56:28;3.65;;;1.05;;
46835;SDS011;32573;51.290;6.926;2022-07-15T06:58:57;5.05;;;0.98;;
46835;SDS011;32573;51.290;6.926;2022-07-15T07:01:26;6.22;;;1.20;;
46835;SDS011;32573;51.290;6.926;2022-07-15T07:03:55;3.35;;;1.30;;
46835;SDS011;32573;51.290;6.926;2022-07-15T07:06:27;3.15;;;0.95;;
46835;SDS011;32573;51.290;6.926;2022-07-15T07:08:55;3.95;;;1.10;;
46835;SDS011;32573;51.290;6.926;2022-07-15T07:11:24;4.30;;;1.10;;
46835;SDS011;32573;51.290;6.926;2022-07-15T07:13:54;3.35;;;1.38;;
46835;SDS011;32573;51.290;6.926;2022-07-15T07:16:22;5.43;;;1.20;;
46835;SDS011;32573;51.290;6.926;2022-07-15T07:18:51;7.35;;;1.67;;
46835;SDS011;32573;51.290;6.926;2022-07-15T07:21:20;4.40;;;1.20;;
46835;SDS011;32573;51.290;6.926;2022-07-15T07:23:57;4.47;;;1.05;;
46835;SDS011;32573;51.290;6.926;2022-07-15T07:26:26;3.67;;;1.15;;
46835;SDS011;32573;51.290;6.926;2022-07-15T07:28:55;3.80;;;1.10;;
46835;SDS011;32573;51.290;6.926;2022-07-15T07:31:24;4.85;;;1.10;;
46835;SDS011;32573;51.290;6.926;2022-07-15T07:33:54;4.80;;;1.08;;
46835;SDS011;32573;51.290;6.926;2022-07-15T07:36:23;4.70;;;1.10;;
46835;SDS011;32573;51.290;6.926;2022-07-15T07:38:53;3.92;;;1.08;;
46835;SDS011;32573;51.290;6.926;2022-07-15T07:41:22;3.40;;;1.00;;
46835;SDS011;32573;51.290;6.926;2022-07-15T07:43:50;3.92;;;1.30;;
46835;SDS011;32573;51.290;6.926;2022-07-15T07:46:20;4.45;;;1.10;;
46835;SDS011;32573;51.290;6.926;2022-07-15T07:48:49;5.30;;;1.20;;
46835;SDS011;32573;51.290;6.926;2022-07-15T07:51:37;6.53;;;1.40;;
46835;SDS011;32573;51.290;6.926;2022-07-15T07:54:07;3.08;;;0.95;;
46835;SDS011;32573;51.290;6.926;2022-07-15T07:56:36;5.47;;;1.20;;
46835;SDS011;32573;51.290;6.926;2022-07-15T07:59:04;2.65;;;1.02;;
46835;SDS011;32573;51.290;6.926;2022-07-15T08:01:34;5.07;;;1.40;;
46835;SDS011;32573;51.290;6.926;2022-07-15T08:04:03;3.90;;;1.20;;
46835;SDS011;32573;51.290;6.926;2022-07-15T08:06:32;4.97;;;1.60;;
46835;SDS011;32573;51.290;6.926;2022-07-15T08:09:01;5.88;;;1.85;;
46835;SDS011;32573;51.290;6.926;2022-07-15T08:11:29;5.70;;;2.30;;
46835;SDS011;32573;51.290;6.926;2022-07-15T08:13:58;9.25;;;2.80;;
46835;SDS011;32573;51.290;6.926;2022-07-15T08:16:26;8.02;;;2.80;;
46835;SDS011;32573;51.290;6.926;2022-07-15T08:18:56;7.43;;;2.80;;
46835;SDS011;32573;51.290;6.926;2022-07-15T08:21:25;7.65;;;3.00;;
46835;SDS011;32573;51.290;6.926;2022-07-15T08:23:53;6.45;;;2.90;;
46835;SDS011;32573;51.290;6.926;2022-07-15T08:26:22;6.55;;;2.50;;
46835;SDS011;32573;51.290;6.926;2022-07-15T08:28:51;6.97;;;2.40;;
46835;SDS011;32573;51.290;6.926;2022-07-15T08:31:31;6.97;;;2.10;;
46835;SDS011;32573;51.290;6.926;2022-07-15T08:34:01;6.72;;;2.53;;
46835;SDS011;32573;51.290;6.926;2022-07-15T08:36:30;6.10;;;2.30;;
46835;SDS011;32573;51.290;6.926;2022-07-15T08:38:59;5.88;;;2.28;;
46835;SDS011;32573;51.290;6.926;2022-07-15T08:41:29;6.05;;;2.40;;
46835;SDS011;32573;51.290;6.926;2022-07-15T08:44:01;7.13;;;3.45;;
46835;SDS011;32573;51.290;6.926;2022-07-15T08:46:30;5.68;;;3.03;;
46835;SDS011;32573;51.290;6.926;2022-07-15T08:49:04;5.10;;;3.10;;
46835;SDS011;32573;51.290;6.926;2022-07-15T08:51:35;7.20;;;3.35;;
46835;SDS011;32573;51.290;6.926;2022-07-15T08:54:05;7.78;;;2.70;;
46835;SDS011;32573;51.290;6.926;2022-07-15T08:56:34;7.25;;;2.75;;
46835;SDS011;32573;51.290;6.926;2022-07-15T08:59:04;5.95;;;2.40;;
46835;SDS011;32573;51.290;6.926;2022-07-15T09:01:39;4.68;;;1.92;;
46835;SDS011;32573;51.290;6.926;2022-07-15T09:04:11;6.28;;;1.40;;
46835;SDS011;32573;51.290;6.926;2022-07-15T09:06:40;5.07;;;1.50;;
46835;SDS011;32573;51.290;6.926;2022-07-15T09:09:23;4.60;;;1.38;;
46835;SDS011;32573;51.290;6.926;2022-07-15T09:11:57;3.45;;;1.40;;
46835;SDS011;32573;51.290;6.926;2022-07-15T09:14:40;4.97;;;1.38;;
46835;SDS011;32573;51.290;6.926;2022-07-15T09:17:20;4.40;;;1.50;;
46835;SDS011;32573;51.290;6.926;2022-07-15T09:19:59;4.55;;;1.58;;
46835;SDS011;32573;51.290;6.926;2022-07-15T09:22:31;3.35;;;1.30;;
46835;SDS011;32573;51.290;6.926;2022-07-15T09:25:14;3.45;;;1.40;;
46835;SDS011;32573;51.290;6.926;2022-07-15T09:27:44;3.50;;;1.10;;
46835;SDS011;32573;51.290;6.926;2022-07-15T09:30:17;6.13;;;1.40;;
46835;SDS011;32573;51.290;6.926;2022-07-15T09:33:06;7.13;;;1.77;;
46835;SDS011;32573;51.290;6.926;2022-07-15T09:36:02;5.10;;;1.40;;
46835;SDS011;32573;51.290;6.926;2022-07-15T09:38:33;5.88;;;1.50;;
46835;SDS011;32573;51.290;6.926;2022-07-15T09:43:43;4.70;;;1.38;;
46835;SDS011;32573;51.290;6.926;2022-07-15T09:46:13;4.05;;;1.20;;
46835;SDS011;32573;51.290;6.926;2022-07-15T09:48:43;5.28;;;1.50;;
46835;SDS011;32573;51.290;6.926;2022-07-15T09:51:16;6.60;;;1.50;;
46835;SDS011;32573;51.290;6.926;2022-07-15T09:53:44;4.82;;;1.40;;
46835;SDS011;32573;51.290;6.926;2022-07-15T09:56:14;6.03;;;1.60;;
46835;SDS011;32573;51.290;6.926;2022-07-15T09:58:48;3.45;;;1.30;;
46835;SDS011;32573;51.290;6.926;2022-07-15T10:01:17;3.63;;;1.40;;
46835;SDS011;32573;51.290;6.926;2022-07-15T10:03:46;3.25;;;1.10;;
46835;SDS011;32573;51.290;6.926;2022-07-15T10:06:17;3.70;;;1.30;;
46835;SDS011;32573;51.290;6.926;2022-07-15T10:08:47;3.67;;;1.20;;
46835;SDS011;32573;51.290;6.926;2022-07-15T10:11:20;4.30;;;1.30;;
46835;SDS011;32573;51.290;6.926;2022-07-15T10:13:53;3.20;;;1.13;;
46835;SDS011;32573;51.290;6.926;2022-07-15T10:16:43;3.03;;;1.13;;
46835;SDS011;32573;51.290;6.926;2022-07-15T10:19:32;3.92;;;1.20;;
46835;SDS011;32573;51.290;6.926;2022-07-15T10:22:22;3.17;;;1.20;;
46835;SDS011;32573;51.290;6.926;2022-07-15T10:25:02;4.43;;;1.20;;
46835;SDS011;32573;51.290;6.926;2022-07-15T10:27:48;4.00;;;1.65;;
46835;SDS011;32573;51.290;6.926;2022-07-15T10:30:25;4.88;;;1.40;;
46835;SDS011;32573;51.290;6.926;2022-07-15T10:33:08;4.22;;;1.30;;
46835;SDS011;32573;51.290;6.926;2022-07-15T10:35:43;5.80;;;1.33;;
46835;SDS011;32573;51.290;6.926;2022-07-15T10:38:23;4.65;;;1.40;;
46835;SDS011;32573;51.290;6.926;2022-07-15T10:40:57;5.70;;;1.10;;
46835;SDS011;32573;51.290;6.926;2022-07-15T10:43:37;4.53;;;1.27;;
46835;SDS011;32573;51.290;6.926;2022-07-15T10:46:17;5.20;;;1.20;;
46835;SDS011;32573;51.290;6.926;2022-07-15T10:48:48;3.95;;;1.10;;
46835;SDS011;32573;51.290;6.926;2022-07-15T10:57:09;2.58;;;0.90;;
46835;SDS011;32573;51.290;6.926;2022-07-15T10:59:46;3.10;;;0.90;;
46835;SDS011;32573;51.290;6.926;2022-07-15T11:02:17;3.90;;;0.93;;
46835;SDS011;32573;51.290;6.926;2022-07-15T11:04:47;1.88;;;0.80;;
46835;SDS011;32573;51.290;6.926;2022-07-15T11:07:28;3.35;;;1.08;;
46835;SDS011;32573;51.290;6.926;2022-07-15T11:10:13;3.97;;;1.00;;
46835;SDS011;32573;51.290;6.926;2022-07-15T11:15:39;3.72;;;1.10;;
46835;SDS011;32573;51.290;6.926;2022-07-15T11:18:07;5.93;;;1.13;;
46835;SDS011;32573;51.290;6.926;2022-07-15T11:20:36;3.08;;;1.05;;
46835;SDS011;32573;51.290;6.926;2022-07-15T11:23:06;4.05;;;1.10;;
46835;SDS011;32573;51.290;6.926;2022-07-15T11:25:38;3.88;;;1.13;;
46835;SDS011;32573;51.290;6.926;2022-07-15T11:28:08;4.57;;;1.08;;
46835;SDS011;32573;51.290;6.926;2022-07-15T11:30:42;6.75;;;1.30;;
46835;SDS011;32573;51.290;6.926;2022-07-15T11:33:15;5.33;;;1.40;;
46835;SDS011;32573;51.290;6.926;2022-07-15T11:35:45;4.88;;;1.25;;
46835;SDS011;32573;51.290;6.926;2022-07-15T11:38:20;3.67;;;1.20;;
46835;SDS011;32573;51.290;6.926;2022-07-15T11:40:52;3.95;;;0.95;;
46835;SDS011;32573;51.290;6.926;2022-07-15T11:43:41;3.38;;;1.13;;
46835;SDS011;32573;51.290;6.926;2022-07-15T11:46:27;2.40;;;1.00;;
46835;SDS011;32573;51.290;6.926;2022-07-15T11:48:58;3.17;;;1.10;;
46835;SDS011;32573;51.290;6.926;2022-07-15T11:51:30;4.22;;;0.90;;
46835;SDS011;32573;51.290;6.926;2022-07-15T11:53:58;4.05;;;1.00;;
46835;SDS011;32573;51.290;6.926;2022-07-15T11:56:28;4.40;;;1.00;;
46835;SDS011;32573;51.290;6.926;2022-07-15T11:58:57;3.15;;;0.90;;
46835;SDS011;32573;51.290;6.926;2022-07-15T12:01:26;1.70;;;0.75;;
46835;SDS011;32573;51.290;6.926;2022-07-15T12:04:01;2.75;;;0.90;;
46835;SDS011;32573;51.290;6.926;2022-07-15T12:06:35;3.05;;;0.90;;
46835;SDS011;32573;51.290;6.926;2022-07-15T12:09:04;3.22;;;1.00;;
46835;SDS011;32573;51.290;6.926;2022-07-15T12:11:37;4.40;;;1.00;;
46835;SDS011;32573;51.290;6.926;2022-07-15T12:14:09;5.43;;;1.00;;
46835;SDS011;32573;51.290;6.926;2022-07-15T12:16:40;2.38;;;0.82;;
46835;SDS011;32573;51.290;6.926;2022-07-15T12:19:12;4.20;;;1.20;;
46835;SDS011;32573;51.290;6.926;2022-07-15T12:21:46;3.03;;;1.00;;
46835;SDS011;32573;51.290;6.926;2022-07-15T12:24:19;2.80;;;1.00;;
46835;SDS011;32573;51.290;6.926;2022-07-15T12:26:57;4.28;;;1.10;;
46835;SDS011;32573;51.290;6.926;2022-07-15T12:29:29;2.97;;;1.10;;
46835;SDS011;32573;51.290;6.926;2022-07-15T12:32:19;3.15;;;1.00;;
46835;SDS011;32573;51.290;6.926;2022-07-15T12:34:49;3.50;;;1.00;;
46835;SDS011;32573;51.290;6.926;2022-07-15T12:37:22;2.53;;;0.85;;
46835;SDS011;32573;51.290;6.926;2022-07-15T12:39:59;3.40;;;0.93;;
46835;SDS011;32573;51.290;6.926;2022-07-15T12:42:31;2.10;;;0.80;;
46835;SDS011;32573;51.290;6.926;2022-07-15T12:45:10;2.47;;;0.60;;
46835;SDS011;32573;51.290;6.926;2022-07-15T12:47:57;3.28;;;0.88;;
46835;SDS011;32573;51.290;6.926;2022-07-15T12:50:26;2.72;;;0.90;;
46835;SDS011;32573;51.290;6.926;2022-07-15T12:52:56;2.70;;;0.90;;
46835;SDS011;32573;51.290;6.926;2022-07-15T12:55:25;2.97;;;0.90;;
46835;SDS011;32573;51.290;6.926;2022-07-15T12:58:04;3.78;;;1.05;;
46835;SDS011;32573;51.290;6.926;2022-07-15T13:00:34;2.83;;;1.00;;
46835;SDS011;32573;51.290;6.926;2022-07-15T13:03:03;2.80;;;1.00;;
46835;SDS011;32573;51.290;6.926;2022-07-15T13:05:35;3.42;;;1.00;;
46835;SDS011;32573;51.290;6.926;2022-07-15T13:08:06;3.60;;;1.00;;
46835;SDS011;32573;51.290;6.926;2022-07-15T13:10:35;3.05;;;0.80;;
46835;SDS011;32573;51.290;6.926;2022-07-15T13:13:06;2.50;;;0.90;;
46835;SDS011;32573;51.290;6.926;2022-07-15T13:18:07;1.63;;;0.70;;
46835;SDS011;32573;51.290;6.926;2022-07-15T13:20:36;2.60;;;0.80;;
46835;SDS011;32573;51.290;6.926;2022-07-15T13:23:05;3.30;;;1.02;;
46835;SDS011;32573;51.290;6.926;2022-07-15T13:25:38;2.17;;;0.80;;
46835;SDS011;32573;51.290;6.926;2022-07-15T13:28:11;4.03;;;1.00;;
46835;SDS011;32573;51.290;6.926;2022-07-15T13:30:40;2.35;;;0.90;;
46835;SDS011;32573;51.290;6.926;2022-07-15T13:33:09;2.28;;;0.90;;
46835;SDS011;32573;51.290;6.926;2022-07-15T13:35:38;2.03;;;0.82;;
46835;SDS011;32573;51.290;6.926;2022-07-15T13:38:07;3.65;;;0.95;;
46835;SDS011;32573;51.290;6.926;2022-07-15T13:40:35;3.13;;;0.90;;
46835;SDS011;32573;51.290;6.926;2022-07-15T13:43:04;2.33;;;0.82;;
46835;SDS011;32573;51.290;6.926;2022-07-15T13:45:34;2.33;;;0.80;;
46835;SDS011;32573;51.290;6.926;2022-07-15T13:48:11;2.70;;;0.90;;
46835;SDS011;32573;51.290;6.926;2022-07-15T13:50:40;1.92;;;0.70;;
46835;SDS011;32573;51.290;6.926;2022-07-15T13:53:30;1.55;;;0.70;;
46835;SDS011;32573;51.290;6.926;2022-07-15T13:56:01;2.63;;;0.90;;
46835;SDS011;32573;51.290;6.926;2022-07-15T13:58:30;3.92;;;0.80;;
46835;SDS011;32573;51.290;6.926;2022-07-15T14:01:00;3.22;;;0.80;;
46835;SDS011;32573;51.290;6.926;2022-07-15T14:03:29;2.17;;;0.80;;
46835;SDS011;32573;51.290;6.926;2022-07-15T14:05:57;3.10;;;0.90;;
46835;SDS011;32573;51.290;6.926;2022-07-15T14:08:27;3.00;;;0.80;;
46835;SDS011;32573;51.290;6.926;2022-07-15T14:10:57;3.33;;;0.88;;
46835;SDS011;32573;51.290;6.926;2022-07-15T14:13:31;2.40;;;0.73;;
46835;SDS011;32573;51.290;6.926;2022-07-15T14:16:02;1.75;;;0.80;;
46835;SDS011;32573;51.290;6.926;2022-07-15T14:18:33;2.65;;;0.90;;
46835;SDS011;32573;51.290;6.926;2022-07-15T14:21:13;2.13;;;0.80;;
46835;SDS011;32573;51.290;6.926;2022-07-15T14:23:42;3.35;;;0.90;;
46835;SDS011;32573;51.290;6.926;2022-07-15T14:26:12;3.10;;;0.80;;
46835;SDS011;32573;51.290;6.926;2022-07-15T14:28:40;2.10;;;0.80;;
46835;SDS011;32573;51.290;6.926;2022-07-15T14:31:11;2.13;;;0.80;;
46835;SDS011;32573;51.290;6.926;2022-07-15T14:33:41;1.80;;;0.70;;
46835;SDS011;32573;51.290;6.926;2022-07-15T14:36:10;2.35;;;0.80;;
46835;SDS011;32573;51.290;6.926;2022-07-15T14:38:39;1.88;;;0.90;;
46835;SDS011;32573;51.290;6.926;2022-07-15T14:41:08;1.90;;;0.70;;
46835;SDS011;32573;51.290;6.926;2022-07-15T14:43:36;1.50;;;0.70;;
46835;SDS011;32573;51.290;6.926;2022-07-15T14:46:06;2.55;;;0.80;;
46835;SDS011;32573;51.290;6.926;2022-07-15T14:48:36;2.33;;;0.90;;
46835;SDS011;32573;51.290;6.926;2022-07-15T14:51:04;3.50;;;0.88;;
46835;SDS011;32573;51.290;6.926;2022-07-15T14:53:33;3.22;;;0.70;;
46835;SDS011;32573;51.290;6.926;2022-07-15T14:56:07;1.55;;;0.88;;
46835;SDS011;32573;51.290;6.926;2022-07-15T14:58:36;2.03;;;0.80;;
46835;SDS011;32573;51.290;6.926;2022-07-15T15:01:04;2.03;;;0.77;;
46835;SDS011;32573;51.290;6.926;2022-07-15T15:03:37;1.55;;;0.80;;
46835;SDS011;32573;51.290;6.926;2022-07-15T15:06:05;2.60;;;0.85;;
46835;SDS011;32573;51.290;6.926;2022-07-15T15:08:34;3.30;;;0.90;;
46835;SDS011;32573;51.290;6.926;2022-07-15T15:11:03;2.47;;;0.80;;
46835;SDS011;32573;51.290;6.926;2022-07-15T15:13:32;2.35;;;0.80;;
46835;SDS011;32573;51.290;6.926;2022-07-15T15:16:00;1.85;;;0.70;;
46835;SDS011;32573;51.290;6.926;2022-07-15T15:18:29;2.55;;;0.90;;
46835;SDS011;32573;51.290;6.926;2022-07-15T15:20:59;1.48;;;0.70;;
46835;SDS011;32573;51.290;6.926;2022-07-15T15:23:27;2.00;;;0.77;;
46835;SDS011;32573;51.290;6.926;2022-07-15T15:25:56;2.13;;;0.85;;
46835;SDS011;32573;51.290;6.926;2022-07-15T15:28:43;2.15;;;0.70;;
46835;SDS011;32573;51.290;6.926;2022-07-15T15:31:13;2.63;;;0.80;;
46835;SDS011;32573;51.290;6.926;2022-07-15T15:33:45;3.95;;;0.90;;